Time;durP1;ratioP1;P1;durP2;ratioP2;P2;SDS_P1;SDS_P2;PMS_P1;PMS_P2;Temp;Humidity;BMP_temperature;BMP_pressure;BME280_temperature;BME280_humidity;BME280_pressure;Samples;Min_cycle;Max_cycle;Signal;HPM_P1;HPM_P2
2023/05/24 00:01:51;;;;;;;6.45;0.68;;;;;;;;;;5281551;28;20507;-72
2023/05/24 00:04:23;;;;;;;5.07;0.90;;;;;;;;;;5281547;28;20468;-72
2023/05/24 00:06:55;;;;;;;4.55;0.60;;;;;;;;;;5281778;28;20103;-72
2023/05/24 00:09:26;;;;;;;7.10;0.80;;;;;;;;;;5282326;28;20128;-72
2023/05/24 00:11:57;;;;;;;5.07;0.80;;;;;;;;;;5281245;28;20561;-72
2023/05/24 00:14:29;;;;;;;5.63;1.10;;;;;;;;;;5282237;28;20016;-72
2023/05/24 00:17:00;;;;;;;5.50;0.90;;;;;;;;;;5281679;28;20012;-72
2023/05/24 00:19:31;;;;;;;5.35;1.13;;;;;;;;;;5280897;28;20455;-72
2023/05/24 00:22:03;;;;;;;6.85;0.98;;;;;;;;;;5281931;28;20804;-72
2023/05/24 00:24:34;;;;;;;3.88;0.68;;;;;;;;;;5281132;28;20074;-72
2023/05/24 00:27:05;;;;;;;4.43;1.15;;;;;;;;;;5281629;28;20025;-72
2023/05/24 00:29:37;;;;;;;4.80;0.90;;;;;;;;;;5281505;28;20032;-72
2023/05/24 00:32:08;;;;;;;4.05;0.90;;;;;;;;;;5280790;28;20029;-72
2023/05/24 00:34:39;;;;;;;4.30;1.10;;;;;;;;;;5281297;28;20479;-72
2023/05/24 00:37:11;;;;;;;6.38;0.65;;;;;;;;;;5281881;28;20422;-72
2023/05/24 00:39:42;;;;;;;6.90;1.20;;;;;;;;;;5280462;28;20021;-72
2023/05/24 00:42:14;;;;;;;6.48;1.06;;;;;;;;;;5281859;28;20533;-72
2023/05/24 00:44:45;;;;;;;4.43;0.77;;;;;;;;;;5281279;28;20494;-72
2023/05/24 00:47:16;;;;;;;4.60;0.90;;;;;;;;;;5282633;28;20024;-72
2023/05/24 00:49:47;;;;;;;3.33;0.65;;;;;;;;;;5285383;28;20459;-72
2023/05/24 00:52:19;;;;;;;4.63;0.73;;;;;;;;;;5285655;28;20024;-72
2023/05/24 00:54:50;;;;;;;9.35;0.80;;;;;;;;;;5285318;28;20349;-72
2023/05/24 00:57:22;;;;;;;4.60;0.77;;;;;;;;;;5285983;28;20009;-72
2023/05/24 00:59:55;;;;;;;3.47;0.60;;;;;;;;;;5283996;28;20125;-72
2023/05/24 01:02:26;;;;;;;9.43;2.42;;;;;;;;;;5285753;28;20055;-72
2023/05/24 01:04:58;;;;;;;10.05;1.75;;;;;;;;;;5285124;28;20032;-72
2023/05/24 01:07:29;;;;;;;10.73;1.35;;;;;;;;;;5284707;28;20039;-72
2023/05/24 01:10:01;;;;;;;9.98;0.90;;;;;;;;;;5285558;28;20024;-72
2023/05/24 01:12:48;;;;;;;6.90;1.00;;;;;;;;;;5285270;28;20271;-72
2023/05/24 01:15:23;;;;;;;7.13;1.48;;;;;;;;;;5284574;28;20534;-72
2023/05/24 01:18:10;;;;;;;5.05;1.05;;;;;;;;;;5284906;28;20025;-72
2023/05/24 01:20:41;;;;;;;8.70;1.98;;;;;;;;;;5284083;28;20013;-72
2023/05/24 01:23:33;;;;;;;5.13;1.00;;;;;;;;;;5285613;28;20112;-72
2023/05/24 01:26:16;;;;;;;7.50;0.95;;;;;;;;;;5284970;28;20479;-72
2023/05/24 01:28:48;;;;;;;8.60;1.15;;;;;;;;;;5283904;28;20037;-72
2023/05/24 01:31:19;;;;;;;8.50;1.00;;;;;;;;;;5285264;28;20074;-72
2023/05/24 01:33:50;;;;;;;7.35;0.90;;;;;;;;;;5284440;28;20029;-72
2023/05/24 01:36:21;;;;;;;4.78;1.46;;;;;;;;;;5284251;28;20471;-72
2023/05/24 01:38:53;;;;;;;6.15;1.02;;;;;;;;;;5284414;28;20539;-72
2023/05/24 01:41:43;;;;;;;10.88;1.20;;;;;;;;;;5285029;28;20043;-72
2023/05/24 01:44:24;;;;;;;7.85;1.55;;;;;;;;;;5284908;28;20021;-72
2023/05/24 01:47:09;;;;;;;6.28;1.05;;;;;;;;;;5284438;28;20371;-72
2023/05/24 01:49:43;;;;;;;4.90;1.15;;;;;;;;;;5283610;28;20388;-72
2023/05/24 01:52:18;;;;;;;6.60;1.27;;;;;;;;;;5284700;28;20054;-72
2023/05/24 01:54:51;;;;;;;5.65;1.20;;;;;;;;;;5284212;28;20074;-72
2023/05/24 01:57:23;;;;;;;7.50;1.10;;;;;;;;;;5283787;28;20060;-72
2023/05/24 01:59:56;;;;;;;6.30;1.10;;;;;;;;;;5282618;28;20052;-72
2023/05/24 02:02:27;;;;;;;6.00;1.17;;;;;;;;;;5284618;28;20032;-71
2023/05/24 02:04:58;;;;;;;8.50;1.23;;;;;;;;;;5283291;28;20024;-72
2023/05/24 02:07:29;;;;;;;8.00;1.48;;;;;;;;;;5284032;28;20024;-72
2023/05/24 02:10:00;;;;;;;6.26;0.92;;;;;;;;;;5283567;28;20028;-72
2023/05/24 02:12:32;;;;;;;9.23;1.65;;;;;;;;;;5284144;28;20009;-72
2023/05/24 02:15:03;;;;;;;8.07;1.23;;;;;;;;;;5284099;28;20032;-72
2023/05/24 02:17:34;;;;;;;5.32;1.20;;;;;;;;;;5283267;28;20028;-72
2023/05/24 02:20:06;;;;;;;8.20;1.40;;;;;;;;;;5283961;28;20105;-72
2023/05/24 02:22:37;;;;;;;7.80;1.52;;;;;;;;;;5283839;28;20024;-72
2023/05/24 02:25:08;;;;;;;6.80;1.65;;;;;;;;;;5283224;28;20091;-72
2023/05/24 02:27:40;;;;;;;8.25;1.35;;;;;;;;;;5283481;28;20113;-71
2023/05/24 02:30:12;;;;;;;7.40;1.50;;;;;;;;;;5284007;28;20079;-72
2023/05/24 02:32:43;;;;;;;7.88;1.55;;;;;;;;;;5282529;28;20017;-71
2023/05/24 02:35:15;;;;;;;6.05;1.70;;;;;;;;;;5283780;28;20383;-71
2023/05/24 02:37:46;;;;;;;8.65;1.67;;;;;;;;;;5283443;28;20471;-71
2023/05/24 02:40:17;;;;;;;7.75;1.58;;;;;;;;;;5283002;28;20038;-71
2023/05/24 02:42:48;;;;;;;7.90;2.20;;;;;;;;;;5283176;28;20511;-71
2023/05/24 02:45:20;;;;;;;7.57;1.77;;;;;;;;;;5283023;28;20017;-71
2023/05/24 02:47:51;;;;;;;6.60;1.00;;;;;;;;;;5283121;28;20078;-71
2023/05/24 02:50:22;;;;;;;9.38;1.52;;;;;;;;;;5283796;28;20048;-70
2023/05/24 02:52:53;;;;;;;8.25;1.48;;;;;;;;;;5282265;28;20021;-71
2023/05/24 02:55:25;;;;;;;5.26;1.40;;;;;;;;;;5283465;28;20016;-71
2023/05/24 02:57:56;;;;;;;10.00;1.10;;;;;;;;;;5282964;28;20023;-71
2023/05/24 03:00:28;;;;;;;6.70;1.17;;;;;;;;;;5282415;28;20052;-70
2023/05/24 03:03:01;;;;;;;7.68;1.64;;;;;;;;;;5282749;28;20082;-70
2023/05/24 03:05:33;;;;;;;4.40;1.20;;;;;;;;;;5282876;28;20025;-71
2023/05/24 03:08:05;;;;;;;6.32;1.50;;;;;;;;;;5281979;28;20341;-70
2023/05/24 03:10:36;;;;;;;11.45;1.33;;;;;;;;;;5282791;28;20363;-71
2023/05/24 03:13:07;;;;;;;5.66;2.06;;;;;;;;;;5282155;28;20024;-70
2023/05/24 03:15:38;;;;;;;6.25;1.10;;;;;;;;;;5282540;28;20017;-71
2023/05/24 03:18:09;;;;;;;5.84;1.20;;;;;;;;;;5282766;28;20020;-71
2023/05/24 03:20:41;;;;;;;7.68;1.27;;;;;;;;;;5281519;28;20020;-71
2023/05/24 03:23:12;;;;;;;6.38;1.80;;;;;;;;;;5283108;28;20022;-71
2023/05/24 03:25:43;;;;;;;6.50;1.10;;;;;;;;;;5282176;28;20051;-71
2023/05/24 03:28:14;;;;;;;8.50;1.60;;;;;;;;;;5281732;28;20036;-71
2023/05/24 03:30:45;;;;;;;6.22;1.58;;;;;;;;;;5281857;28;20483;-72
2023/05/24 03:33:17;;;;;;;5.95;1.27;;;;;;;;;;5282688;28;20032;-72
2023/05/24 03:35:48;;;;;;;7.80;1.68;;;;;;;;;;5281298;28;20277;-71
2023/05/24 03:38:19;;;;;;;8.00;1.60;;;;;;;;;;5282516;28;20108;-72
2023/05/24 03:40:50;;;;;;;7.53;1.48;;;;;;;;;;5281948;28;20070;-71
2023/05/24 03:43:21;;;;;;;9.90;1.80;;;;;;;;;;5281504;28;20048;-70
2023/05/24 03:45:53;;;;;;;11.02;1.70;;;;;;;;;;5282003;28;20382;-71
2023/05/24 03:48:24;;;;;;;9.70;1.50;;;;;;;;;;5281540;28;20036;-71
2023/05/24 03:50:55;;;;;;;6.75;1.95;;;;;;;;;;5281811;28;20021;-71
2023/05/24 03:53:26;;;;;;;6.25;1.27;;;;;;;;;;5282355;28;20027;-71
2023/05/24 03:55:57;;;;;;;9.07;1.73;;;;;;;;;;5280850;28;20103;-71
2023/05/24 03:58:29;;;;;;;8.38;2.03;;;;;;;;;;5282547;28;20028;-71
2023/05/24 04:01:00;;;;;;;7.82;1.55;;;;;;;;;;5281727;28;20043;-71
2023/05/24 04:03:32;;;;;;;8.98;2.05;;;;;;;;;;5281158;28;20020;-71
2023/05/24 04:06:05;;;;;;;7.32;2.05;;;;;;;;;;5281704;28;20127;-71
2023/05/24 04:08:36;;;;;;;8.50;2.17;;;;;;;;;;5282045;28;20526;-71
2023/05/24 04:11:07;;;;;;;12.40;2.30;;;;;;;;;;5280915;28;20052;-71
2023/05/24 04:13:38;;;;;;;9.45;1.88;;;;;;;;;;5281671;28;20441;-71
2023/05/24 04:16:10;;;;;;;7.47;2.25;;;;;;;;;;5281951;28;20021;-71
2023/05/24 04:18:41;;;;;;;8.15;2.20;;;;;;;;;;5280592;28;20128;-71
2023/05/24 04:21:12;;;;;;;7.32;2.15;;;;;;;;;;5281505;28;20024;-71
2023/05/24 04:23:43;;;;;;;8.27;2.28;;;;;;;;;;5280694;28;20024;-71
2023/05/24 04:26:16;;;;;;;10.98;2.80;;;;;;;;;;5281969;28;20021;-70
2023/05/24 04:28:47;;;;;;;8.00;2.30;;;;;;;;;;5281196;28;20039;-71
2023/05/24 04:31:19;;;;;;;7.45;1.88;;;;;;;;;;5281027;28;20021;-71
2023/05/24 04:33:51;;;;;;;7.13;1.90;;;;;;;;;;5281185;28;20052;-71
2023/05/24 04:36:23;;;;;;;6.90;1.95;;;;;;;;;;5281984;28;20017;-71
2023/05/24 04:38:56;;;;;;;10.70;3.08;;;;;;;;;;5280490;28;20028;-71
2023/05/24 04:41:30;;;;;;;7.38;2.20;;;;;;;;;;5281788;28;20419;-71
2023/05/24 04:44:01;;;;;;;7.35;2.00;;;;;;;;;;5281649;28;20375;-72
2023/05/24 04:46:34;;;;;;;11.85;2.65;;;;;;;;;;5280861;28;20032;-71
2023/05/24 04:49:07;;;;;;;9.40;2.30;;;;;;;;;;5281481;28;20031;-71
2023/05/24 04:51:38;;;;;;;8.82;2.13;;;;;;;;;;5280495;28;20091;-71
2023/05/24 04:54:10;;;;;;;10.15;2.80;;;;;;;;;;5281456;28;20116;-71
2023/05/24 04:56:41;;;;;;;10.63;2.47;;;;;;;;;;5281211;28;20414;-71
2023/05/24 04:59:12;;;;;;;9.88;2.38;;;;;;;;;;5280719;28;20070;-71
2023/05/24 05:01:43;;;;;;;10.40;3.17;;;;;;;;;;5281108;28;20115;-71
2023/05/24 05:04:14;;;;;;;9.05;2.58;;;;;;;;;;5281471;28;20052;-71
2023/05/24 05:06:47;;;;;;;10.35;2.33;;;;;;;;;;5280034;28;20074;-71
2023/05/24 05:09:18;;;;;;;12.48;2.15;;;;;;;;;;5281594;28;20482;-71
2023/05/24 05:11:49;;;;;;;8.18;2.60;;;;;;;;;;5281016;28;20025;-71
2023/05/24 05:14:20;;;;;;;10.02;2.50;;;;;;;;;;5280697;28;20021;-71
2023/05/24 05:16:52;;;;;;;13.52;3.05;;;;;;;;;;5280771;28;20371;-71
2023/05/24 05:19:23;;;;;;;8.57;2.60;;;;;;;;;;5281418;28;20024;-70
2023/05/24 05:21:54;;;;;;;11.75;3.40;;;;;;;;;;5280134;28;20492;-71
2023/05/24 05:24:26;;;;;;;9.95;2.83;;;;;;;;;;5281416;28;20012;-70
2023/05/24 05:26:57;;;;;;;9.35;2.42;;;;;;;;;;5280000;28;20028;-71
2023/05/24 05:29:28;;;;;;;10.10;2.72;;;;;;;;;;5281192;28;20423;-70
2023/05/24 05:31:59;;;;;;;8.80;3.03;;;;;;;;;;5280800;28;20024;-72
2023/05/24 05:34:30;;;;;;;12.73;3.15;;;;;;;;;;5283892;28;20059;-71
2023/05/24 05:37:01;;;;;;;8.43;2.35;;;;;;;;;;5284845;28;20070;-71
2023/05/24 05:39:33;;;;;;;14.10;2.97;;;;;;;;;;5284608;28;20013;-71
2023/05/24 05:42:04;;;;;;;11.50;2.85;;;;;;;;;;5283790;28;20544;-71
2023/05/24 05:44:36;;;;;;;12.88;2.88;;;;;;;;;;5284713;28;20275;-71
2023/05/24 05:47:08;;;;;;;11.68;3.85;;;;;;;;;;5284125;28;20029;-72
2023/05/24 05:49:39;;;;;;;7.85;2.60;;;;;;;;;;5283310;28;20024;-72
2023/05/24 05:52:10;;;;;;;13.60;4.13;;;;;;;;;;5284575;28;20349;-72
2023/05/24 05:54:42;;;;;;;13.90;3.13;;;;;;;;;;5283949;28;20027;-73
2023/05/24 05:57:15;;;;;;;10.00;2.70;;;;;;;;;;5283758;28;20139;-72
2023/05/24 05:59:46;;;;;;;8.90;2.80;;;;;;;;;;5283979;28;20041;-71
2023/05/24 06:02:23;;;;;;;11.48;3.17;;;;;;;;;;5283784;28;20024;-71
2023/05/24 06:04:54;;;;;;;12.10;3.13;;;;;;;;;;5283807;28;20328;-71
2023/05/24 06:07:26;;;;;;;11.65;3.50;;;;;;;;;;5284472;28;20048;-71
2023/05/24 06:09:57;;;;;;;12.68;3.15;;;;;;;;;;5283163;28;20032;-71
2023/05/24 06:12:28;;;;;;;12.93;3.03;;;;;;;;;;5284517;28;20036;-71
2023/05/24 06:14:59;;;;;;;13.95;3.13;;;;;;;;;;5283673;28;20047;-71
2023/05/24 06:17:30;;;;;;;9.82;3.45;;;;;;;;;;5283054;28;20041;-71
2023/05/24 06:20:06;;;;;;;13.80;3.70;;;;;;;;;;5283722;28;20030;-71
2023/05/24 06:22:38;;;;;;;14.30;3.70;;;;;;;;;;5283759;28;20017;-71
2023/05/24 06:25:13;;;;;;;12.80;4.28;;;;;;;;;;5283216;28;20017;-71
2023/05/24 06:27:44;;;;;;;20.35;3.80;;;;;;;;;;5283314;28;20104;-71
2023/05/24 06:30:16;;;;;;;10.02;3.17;;;;;;;;;;5283158;28;20597;-71
2023/05/24 06:32:47;;;;;;;10.95;3.13;;;;;;;;;;5283188;28;20360;-71
2023/05/24 06:35:18;;;;;;;13.95;3.80;;;;;;;;;;5283967;28;20475;-71
2023/05/24 06:37:50;;;;;;;13.80;4.60;;;;;;;;;;5282467;28;20094;-71
2023/05/24 06:40:21;;;;;;;19.65;4.72;;;;;;;;;;5283775;28;20051;-71
2023/05/24 06:42:52;;;;;;;20.63;4.97;;;;;;;;;;5283271;28;20048;-72
2023/05/24 06:45:23;;;;;;;12.57;3.60;;;;;;;;;;5282202;28;20033;-71
2023/05/24 06:47:54;;;;;;;16.20;3.50;;;;;;;;;;5283059;28;20030;-71
2023/05/24 06:50:26;;;;;;;16.75;4.22;;;;;;;;;;5283399;28;20271;-71
2023/05/24 06:52:57;;;;;;;12.40;3.22;;;;;;;;;;5282041;28;20439;-71
2023/05/24 06:55:28;;;;;;;13.90;4.25;;;;;;;;;;5283644;28;20024;-71
2023/05/24 06:57:59;;;;;;;15.20;4.85;;;;;;;;;;5282988;28;20024;-71
2023/05/24 07:00:31;;;;;;;19.05;5.15;;;;;;;;;;5282113;28;20076;-71
2023/05/24 07:03:02;;;;;;;16.92;5.53;;;;;;;;;;5282919;28;20085;-71
2023/05/24 07:05:34;;;;;;;13.98;4.47;;;;;;;;;;5282004;28;20017;-71
2023/05/24 07:08:05;;;;;;;11.82;4.65;;;;;;;;;;5282962;28;20024;-71
2023/05/24 07:10:36;;;;;;;17.45;6.22;;;;;;;;;;5282721;28;20034;-71
2023/05/24 07:13:08;;;;;;;16.42;5.65;;;;;;;;;;5282106;28;20028;-70
2023/05/24 07:15:40;;;;;;;15.32;5.10;;;;;;;;;;5282188;28;20366;-72
2023/05/24 07:18:12;;;;;;;15.75;5.32;;;;;;;;;;5283128;28;20028;-71
2023/05/24 07:20:43;;;;;;;16.77;5.47;;;;;;;;;;5281681;28;20073;-72
2023/05/24 07:23:14;;;;;;;21.67;5.50;;;;;;;;;;5282067;28;20028;-71
2023/05/24 07:25:45;;;;;;;14.15;4.07;;;;;;;;;;5278113;28;20134;-72
2023/05/24 07:28:18;;;;;;;10.15;4.40;;;;;;;;;;5270008;28;20115;-70
2023/05/24 07:30:50;;;;;;;13.75;3.75;;;;;;;;;;5279503;28;20346;-70
2023/05/24 07:33:21;;;;;;;14.32;4.30;;;;;;;;;;5274005;28;20107;-72
2023/05/24 07:35:52;;;;;;;15.88;3.50;;;;;;;;;;5271681;28;20116;-72
2023/05/24 07:38:23;;;;;;;12.30;3.30;;;;;;;;;;5282300;28;20031;-71
2023/05/24 07:40:54;;;;;;;17.23;3.20;;;;;;;;;;5279570;28;20020;-71
2023/05/24 07:43:26;;;;;;;13.98;3.10;;;;;;;;;;5282527;28;20362;-71
2023/05/24 07:45:57;;;;;;;17.15;3.63;;;;;;;;;;5273680;28;20037;-71
2023/05/24 07:48:28;;;;;;;12.23;3.07;;;;;;;;;;5281092;28;20020;-71
2023/05/24 07:50:59;;;;;;;11.00;2.55;;;;;;;;;;5281544;28;20269;-71
2023/05/24 07:53:31;;;;;;;12.70;2.80;;;;;;;;;;5281827;28;20048;-71
2023/05/24 07:56:02;;;;;;;10.98;2.42;;;;;;;;;;5281073;28;20028;-72
2023/05/24 07:58:33;;;;;;;9.15;1.83;;;;;;;;;;5281905;28;20016;-72
2023/05/24 08:01:05;;;;;;;15.13;2.70;;;;;;;;;;5281195;28;20105;-72
2023/05/24 08:03:36;;;;;;;8.68;2.33;;;;;;;;;;5280543;28;20290;-73
2023/05/24 08:06:08;;;;;;;7.60;1.80;;;;;;;;;;5281809;28;20024;-73
2023/05/24 08:08:40;;;;;;;9.57;2.10;;;;;;;;;;5280300;28;20032;-73
2023/05/24 08:11:11;;;;;;;9.73;2.13;;;;;;;;;;5281288;28;20021;-73
2023/05/24 08:13:42;;;;;;;8.75;1.70;;;;;;;;;;5281252;28;20302;-73
2023/05/24 08:16:14;;;;;;;10.30;2.33;;;;;;;;;;5280998;28;20270;-73
2023/05/24 08:18:45;;;;;;;10.40;1.90;;;;;;;;;;5280978;28;20021;-72
2023/05/24 08:21:16;;;;;;;6.15;1.40;;;;;;;;;;5281699;28;20035;-72
2023/05/24 08:23:47;;;;;;;11.07;2.03;;;;;;;;;;5279421;28;20031;-72
2023/05/24 08:26:19;;;;;;;9.80;2.35;;;;;;;;;;5281203;28;20062;-72
2023/05/24 08:28:51;;;;;;;7.35;1.98;;;;;;;;;;5281186;28;20067;-73
2023/05/24 08:31:22;;;;;;;11.27;1.70;;;;;;;;;;5281179;28;20017;-72
2023/05/24 08:33:56;;;;;;;8.93;1.65;;;;;;;;;;5281284;28;20032;-72
2023/05/24 08:36:27;;;;;;;7.13;1.75;;;;;;;;;;5281747;28;20059;-72
2023/05/24 08:38:59;;;;;;;10.50;1.90;;;;;;;;;;5280198;28;20048;-72
2023/05/24 08:41:36;;;;;;;11.98;1.63;;;;;;;;;;5281547;28;20811;-73
2023/05/24 08:44:07;;;;;;;14.20;2.10;;;;;;;;;;5280808;28;20121;-72
2023/05/24 08:46:38;;;;;;;8.50;1.50;;;;;;;;;;5281277;28;20154;-73
2023/05/24 08:49:11;;;;;;;8.48;1.48;;;;;;;;;;5281106;28;20039;-73
2023/05/24 08:51:43;;;;;;;10.25;1.17;;;;;;;;;;5279923;28;20017;-72
2023/05/24 08:54:15;;;;;;;7.65;1.90;;;;;;;;;;5281721;28;20059;-72
2023/05/24 08:56:46;;;;;;;7.25;1.17;;;;;;;;;;5281008;28;20056;-73
2023/05/24 08:59:17;;;;;;;9.93;1.55;;;;;;;;;;5280866;28;20133;-71
2023/05/24 09:01:51;;;;;;;9.63;1.63;;;;;;;;;;5280647;28;20031;-71
2023/05/24 09:04:23;;;;;;;7.90;1.38;;;;;;;;;;5280924;28;20267;-72
2023/05/24 09:06:55;;;;;;;7.43;1.77;;;;;;;;;;5279919;28;20074;-72
2023/05/24 09:09:27;;;;;;;6.25;1.55;;;;;;;;;;5284762;28;20033;-72
2023/05/24 09:12:00;;;;;;;9.38;2.30;;;;;;;;;;5283938;28;20024;-73
2023/05/24 09:14:32;;;;;;;9.98;1.52;;;;;;;;;;5284924;28;20019;-71
2023/05/24 09:17:03;;;;;;;10.00;2.17;;;;;;;;;;5285028;28;20017;-72
2023/05/24 09:19:35;;;;;;;8.45;2.00;;;;;;;;;;5284125;28;20021;-72
2023/05/24 09:22:06;;;;;;;11.07;2.15;;;;;;;;;;5283467;28;20016;-72
2023/05/24 09:24:46;;;;;;;8.40;1.67;;;;;;;;;;5283073;28;20100;-72
2023/05/24 09:27:20;;;;;;;8.00;1.40;;;;;;;;;;5282822;28;20618;-72
2023/05/24 09:29:52;;;;;;;7.20;1.55;;;;;;;;;;5282719;28;20036;-72
2023/05/24 09:32:23;;;;;;;7.75;1.98;;;;;;;;;;5283263;28;20013;-72
2023/05/24 09:34:56;;;;;;;8.63;1.35;;;;;;;;;;5281918;28;20025;-72
2023/05/24 09:37:28;;;;;;;7.75;1.55;;;;;;;;;;5284415;28;20040;-72
2023/05/24 09:39:59;;;;;;;9.00;1.50;;;;;;;;;;5283840;28;20513;-72
2023/05/24 09:42:30;;;;;;;6.83;1.23;;;;;;;;;;5284817;28;20020;-72
2023/05/24 09:45:07;;;;;;;6.80;1.50;;;;;;;;;;5284705;28;20271;-72
2023/05/24 09:47:39;;;;;;;7.30;1.40;;;;;;;;;;5283421;28;20017;-72
2023/05/24 09:50:15;;;;;;;6.47;1.45;;;;;;;;;;5284821;28;20368;-72
2023/05/24 09:52:46;;;;;;;8.95;1.50;;;;;;;;;;5283998;28;20025;-73
2023/05/24 09:55:18;;;;;;;7.13;1.40;;;;;;;;;;5284049;28;20028;-72
2023/05/24 09:57:52;;;;;;;6.45;1.45;;;;;;;;;;5284126;28;20302;-72
2023/05/24 10:00:23;;;;;;;6.55;1.30;;;;;;;;;;5284417;28;20047;-72
2023/05/24 10:03:02;;;;;;;6.13;1.40;;;;;;;;;;5283332;28;20024;-73
2023/05/24 10:05:34;;;;;;;7.78;1.38;;;;;;;;;;5284418;28;20069;-72
2023/05/24 10:08:08;;;;;;;6.40;1.10;;;;;;;;;;5283391;28;20031;-73
2023/05/24 10:10:40;;;;;;;6.55;1.13;;;;;;;;;;5283696;28;20459;-72
2023/05/24 10:13:14;;;;;;;4.28;1.17;;;;;;;;;;5284578;28;20020;-72
2023/05/24 10:15:45;;;;;;;10.48;1.60;;;;;;;;;;5283108;28;20020;-73
2023/05/24 10:18:17;;;;;;;10.23;1.50;;;;;;;;;;5284457;28;20005;-72
2023/05/24 10:20:49;;;;;;;7.50;1.17;;;;;;;;;;5282372;28;20020;-72
2023/05/24 10:23:22;;;;;;;7.93;1.58;;;;;;;;;;5283269;28;20024;-73
2023/05/24 10:25:56;;;;;;;4.68;1.20;;;;;;;;;;5283631;28;20447;-72
2023/05/24 10:28:27;;;;;;;9.80;1.45;;;;;;;;;;5283874;28;20119;-72
2023/05/24 10:31:21;;;;;;;6.75;1.20;;;;;;;;;;5282608;28;20095;-73
2023/05/24 10:33:54;;;;;;;6.43;1.17;;;;;;;;;;5283164;28;20024;-72
2023/05/24 10:36:25;;;;;;;5.88;1.25;;;;;;;;;;5283132;28;20214;-72
2023/05/24 10:38:57;;;;;;;7.20;1.40;;;;;;;;;;5283204;28;20171;-72
2023/05/24 10:41:28;;;;;;;7.93;1.20;;;;;;;;;;5284191;28;20081;-72
2023/05/24 10:43:59;;;;;;;5.55;1.00;;;;;;;;;;5282167;28;20017;-72
2023/05/24 10:46:31;;;;;;;8.23;1.40;;;;;;;;;;5283371;28;20020;-72
2023/05/24 10:49:05;;;;;;;8.52;1.45;;;;;;;;;;5283283;28;20310;-72
2023/05/24 10:51:39;;;;;;;8.40;1.42;;;;;;;;;;5282376;28;20023;-72
2023/05/24 10:54:12;;;;;;;8.18;1.38;;;;;;;;;;5283535;28;20593;-73
2023/05/24 10:56:44;;;;;;;8.50;1.70;;;;;;;;;;5282657;28;20017;-73
2023/05/24 10:59:21;;;;;;;8.43;1.75;;;;;;;;;;5282267;28;20037;-73
2023/05/24 11:01:56;;;;;;;7.65;1.48;;;;;;;;;;5282536;28;20021;-74
2023/05/24 11:04:46;;;;;;;12.00;2.25;;;;;;;;;;5282222;28;20025;-74
2023/05/24 11:07:18;;;;;;;8.50;1.63;;;;;;;;;;5283202;28;20028;-74
2023/05/24 11:09:55;;;;;;;10.73;2.05;;;;;;;;;;5282673;28;20115;-75
2023/05/24 11:12:30;;;;;;;10.82;1.48;;;;;;;;;;5282234;28;20017;-74
2023/05/24 11:15:02;;;;;;;9.45;1.45;;;;;;;;;;5282763;28;20027;-73
2023/05/24 11:17:53;;;;;;;8.93;1.50;;;;;;;;;;5282580;28;20028;-74
2023/05/24 11:20:24;;;;;;;11.30;1.98;;;;;;;;;;5281928;28;20028;-73
2023/05/24 11:22:56;;;;;;;8.50;1.58;;;;;;;;;;5282148;28;20023;-74
2023/05/24 11:25:28;;;;;;;7.22;1.02;;;;;;;;;;5282026;28;20464;-74
2023/05/24 11:28:00;;;;;;;4.57;1.17;;;;;;;;;;5281960;28;20039;-74
2023/05/24 11:30:34;;;;;;;10.98;1.45;;;;;;;;;;5282039;28;20016;-74
2023/05/24 11:33:22;;;;;;;8.23;1.98;;;;;;;;;;5281076;28;20024;-73
2023/05/24 11:35:54;;;;;;;6.23;1.27;;;;;;;;;;5281911;28;20363;-74
2023/05/24 11:38:26;;;;;;;7.20;1.33;;;;;;;;;;5282266;28;20016;-73
2023/05/24 11:40:57;;;;;;;10.18;1.95;;;;;;;;;;5281181;28;20033;-73
2023/05/24 11:43:28;;;;;;;6.00;1.57;;;;;;;;;;5282464;28;20020;-73
2023/05/24 11:46:00;;;;;;;7.82;1.27;;;;;;;;;;5281887;28;20339;-73
2023/05/24 11:48:31;;;;;;;8.95;1.33;;;;;;;;;;5281252;28;20033;-74
2023/05/24 11:51:04;;;;;;;5.43;1.00;;;;;;;;;;5281999;28;20024;-73
2023/05/24 11:53:36;;;;;;;7.18;1.70;;;;;;;;;;5281372;28;20173;-73
2023/05/24 11:56:07;;;;;;;5.95;1.10;;;;;;;;;;5281889;28;20096;-73
2023/05/24 11:58:48;;;;;;;6.43;1.03;;;;;;;;;;5281741;28;20539;-73
2023/05/24 12:01:26;;;;;;;10.13;2.20;;;;;;;;;;5281266;28;20329;-73
2023/05/24 12:03:57;;;;;;;7.18;1.30;;;;;;;;;;5281594;28;20046;-73
2023/05/24 12:06:41;;;;;;;8.52;1.75;;;;;;;;;;5282271;28;20054;-73
2023/05/24 12:09:13;;;;;;;7.65;1.52;;;;;;;;;;5281177;28;20386;-73
2023/05/24 12:11:46;;;;;;;9.45;1.45;;;;;;;;;;5281321;28;20021;-73
2023/05/24 12:14:26;;;;;;;6.68;1.25;;;;;;;;;;5282258;28;20028;-73
2023/05/24 12:16:58;;;;;;;11.85;1.65;;;;;;;;;;5280669;28;20024;-73
2023/05/24 12:19:33;;;;;;;9.02;1.50;;;;;;;;;;5281764;28;20015;-74
2023/05/24 12:22:05;;;;;;;9.70;1.73;;;;;;;;;;5280804;28;20024;-75
2023/05/24 12:24:36;;;;;;;6.82;1.20;;;;;;;;;;5281523;28;20032;-75
2023/05/24 12:27:08;;;;;;;8.02;1.00;;;;;;;;;;5281596;28;20383;-74
2023/05/24 12:29:41;;;;;;;8.10;1.08;;;;;;;;;;5280405;28;20047;-74
2023/05/24 12:32:12;;;;;;;8.85;1.30;;;;;;;;;;5281974;28;20025;-74
2023/05/24 12:34:43;;;;;;;8.82;1.77;;;;;;;;;;5281110;28;20031;-74
2023/05/24 12:37:17;;;;;;;11.00;1.98;;;;;;;;;;5281085;28;20020;-74
2023/05/24 12:39:48;;;;;;;8.38;1.55;;;;;;;;;;5281242;28;20021;-74
2023/05/24 12:42:22;;;;;;;7.87;1.30;;;;;;;;;;5281794;28;20016;-73
2023/05/24 12:44:53;;;;;;;8.18;1.40;;;;;;;;;;5285041;28;20271;-73
2023/05/24 12:47:25;;;;;;;7.90;1.52;;;;;;;;;;5285797;28;20016;-73
2023/05/24 12:49:57;;;;;;;8.45;1.58;;;;;;;;;;5284267;28;20364;-73
2023/05/24 12:52:28;;;;;;;7.75;1.45;;;;;;;;;;5285434;28;20482;-75
2023/05/24 12:54:59;;;;;;;9.83;1.43;;;;;;;;;;5285169;28;20459;-75
2023/05/24 12:57:30;;;;;;;7.97;1.65;;;;;;;;;;5284492;28;20742;-75
2023/05/24 13:00:02;;;;;;;7.45;1.75;;;;;;;;;;5285126;28;20781;-75
2023/05/24 13:02:34;;;;;;;10.23;1.60;;;;;;;;;;5285537;28;20464;-76
2023/05/24 13:05:06;;;;;;;9.00;1.83;;;;;;;;;;5284512;28;20016;-73
2023/05/24 13:07:38;;;;;;;6.97;1.48;;;;;;;;;;5284804;28;20021;-74
2023/05/24 13:10:09;;;;;;;6.65;1.10;;;;;;;;;;5285051;28;20464;-74
2023/05/24 13:12:40;;;;;;;7.70;1.63;;;;;;;;;;5283961;28;20404;-74
2023/05/24 13:15:12;;;;;;;9.17;1.50;;;;;;;;;;5285550;28;20359;-74
2023/05/24 13:17:44;;;;;;;7.10;1.63;;;;;;;;;;5284772;28;20255;-74
2023/05/24 13:20:17;;;;;;;16.08;1.75;;;;;;;;;;5284515;28;20012;-74
2023/05/24 13:22:48;;;;;;;8.40;1.50;;;;;;;;;;5284749;28;20051;-74
2023/05/24 13:25:21;;;;;;;12.90;1.73;;;;;;;;;;5284507;28;20435;-74
2023/05/24 13:27:52;;;;;;;9.50;2.10;;;;;;;;;;5284542;28;20028;-74
2023/05/24 13:30:26;;;;;;;7.15;1.27;;;;;;;;;;5285130;28;20095;-73
2023/05/24 13:32:58;;;;;;;6.72;1.30;;;;;;;;;;5283630;28;20017;-74
2023/05/24 13:35:30;;;;;;;9.85;1.70;;;;;;;;;;5284845;28;20036;-73
2023/05/24 13:38:01;;;;;;;8.85;1.83;;;;;;;;;;5284826;28;20056;-74
2023/05/24 13:40:32;;;;;;;7.63;1.60;;;;;;;;;;5283797;28;20020;-74
2023/05/24 13:43:03;;;;;;;8.57;1.40;;;;;;;;;;5284483;28;20293;-75
2023/05/24 13:45:35;;;;;;;8.27;1.67;;;;;;;;;;5284470;28;20753;-74
2023/05/24 13:48:06;;;;;;;9.68;1.60;;;;;;;;;;5283666;28;20041;-74
2023/05/24 13:50:37;;;;;;;5.97;1.35;;;;;;;;;;5284398;28;20035;-73
2023/05/24 13:53:08;;;;;;;8.48;1.27;;;;;;;;;;5283543;28;20108;-74
2023/05/24 13:55:40;;;;;;;6.13;1.50;;;;;;;;;;5284130;28;20024;-74
2023/05/24 13:58:11;;;;;;;13.65;1.85;;;;;;;;;;5284517;28;20609;-73
2023/05/24 14:00:42;;;;;;;8.63;1.95;;;;;;;;;;5282682;28;20070;-73
2023/05/24 14:03:14;;;;;;;7.28;1.52;;;;;;;;;;5284642;28;20013;-72
2023/05/24 14:05:46;;;;;;;7.40;1.42;;;;;;;;;;5283823;28;20016;-73
2023/05/24 14:08:17;;;;;;;4.53;0.80;;;;;;;;;;5283473;28;20035;-73
2023/05/24 14:10:48;;;;;;;8.05;1.40;;;;;;;;;;5283525;28;20503;-73
2023/05/24 14:13:20;;;;;;;6.00;1.38;;;;;;;;;;5284281;28;20498;-73
2023/05/24 14:15:51;;;;;;;7.00;1.20;;;;;;;;;;5282825;28;20073;-73
2023/05/24 14:18:22;;;;;;;7.07;1.27;;;;;;;;;;5284055;28;20032;-73
2023/05/24 14:20:54;;;;;;;6.25;1.00;;;;;;;;;;5283381;28;20020;-73
2023/05/24 14:23:26;;;;;;;6.35;1.42;;;;;;;;;;5283446;28;20024;-73
2023/05/24 14:25:57;;;;;;;8.27;1.33;;;;;;;;;;5283154;28;20262;-73
2023/05/24 14:28:29;;;;;;;7.07;1.20;;;;;;;;;;5282876;28;20103;-74
2023/05/24 14:31:00;;;;;;;7.32;1.50;;;;;;;;;;5283353;28;20486;-74
2023/05/24 14:33:32;;;;;;;5.43;1.15;;;;;;;;;;5283555;28;20059;-73
2023/05/24 14:36:03;;;;;;;7.40;0.90;;;;;;;;;;5282945;28;20029;-73
2023/05/24 14:38:34;;;;;;;5.32;1.30;;;;;;;;;;5283346;28;20301;-73
2023/05/24 14:41:07;;;;;;;3.70;1.08;;;;;;;;;;5283548;28;20524;-73
2023/05/24 14:43:39;;;;;;;5.13;1.27;;;;;;;;;;5281997;28;20078;-73
2023/05/24 14:46:10;;;;;;;6.20;0.80;;;;;;;;;;5282960;28;20012;-74
2023/05/24 14:48:41;;;;;;;5.03;0.93;;;;;;;;;;5278403;28;20098;-74
2023/05/24 14:51:13;;;;;;;5.53;1.15;;;;;;;;;;5279927;28;20266;-75
2023/05/24 14:53:44;;;;;;;4.93;0.90;;;;;;;;;;5282688;28;20495;-75
2023/05/24 14:56:15;;;;;;;6.53;1.02;;;;;;;;;;5283093;28;20013;-76
2023/05/24 14:58:46;;;;;;;8.35;1.13;;;;;;;;;;5281886;28;20021;-75
2023/05/24 15:01:18;;;;;;;4.97;1.25;;;;;;;;;;5282883;28;20068;-75
2023/05/24 15:03:49;;;;;;;5.72;1.05;;;;;;;;;;5280613;28;20029;-75
2023/05/24 15:06:20;;;;;;;5.10;0.90;;;;;;;;;;5282433;28;20021;-75
2023/05/24 15:08:51;;;;;;;3.90;0.90;;;;;;;;;;5282086;28;20303;-75